Main page
METAR-TAF:

METAR-TAF

Airports :

Iași International Airport

Iasi, Romania

latitude: 47-10N, longitude: 027-38E, elevation: 102 m

Current weather observation

The report was made 31 minutes ago, at 10:30 UTC
Wind 5 kt from variable directions
Temperature 22°C
Humidity 27%
Pressure 1020 hPa
Visibility 10 km or more
no clouds below 1500 m and no cumulonimbus

METAR: LRIA 221030Z VRB05KT CAVOK 22/02 Q1020

Time: 14:01 (11:01 UTC)

Forecast

The report was made 3 hours and 1 minutes ago, at 08:00 UTC
Forecast valid from 22 at 09 UTC to 22 at 18 UTC
Wind 6 kt from the West/Southwest
Visibility 10 km or more
no clouds below 1500 m and no cumulonimbus

TAF: LRIA 220800Z 2209/2218 25006KT CAVOK

Weather observations and forecasts of more than 4000 airports (METAR and TAF reports).

The available stations are represented by yellow and red dots on the map.

Hover mouse over dot to see the name of the station.

Then click to see weather observations and forecasts.

To change the map : click on the green buttons with a black cross to zoom in, on the green button with a dash to zoom out, or on the green arrows for adjacent maps.


METAR-TAF: